Bristol, NH (03222)

2:22 AM EST on January 17, 2017 (GMT -0500)
Bristol Village | | Change Station
Active Advisory: Winter Storm Watch

Elev 515 ft 43.59 °N, 71.74 °W | Updated 5 seconds ago

Clear
Clear
18.9 °F
Feels Like 19 °F
N
0.0
Wind Variable Wind from WSW
Gusts 1.0 mph

Today
High -- | Low -- °F
--% Chance of Precip.
Yesterday
High -- | Low -- °F
Precip. -- in
Pressure 30.17 in
Visibility 10.0 miles
Clouds Clear
Windchill 19 °F
Dew Point 15 °F
Humidity 83%
Rainfall 0.00 in
Snow Depth Not available.
7:16 AM 4:38 PM
Waning Gibbous, 75% visible
METAR K1P1 170715Z AUTO 00000KT 10SM CLR M08/M10 A3017 RMK AO2 T10761099
Pressure 30.17 in
Visibility 10.0 miles
Clouds Clear
Windchill 19 °F
Dew Point 15 °F
Humidity 83%
Rainfall 0.00 in
Snow Depth Not available.
7:16 AM 4:38 PM
Waning Gibbous, 75% visible
METAR K1P1 170715Z AUTO 00000KT 10SM CLR M08/M10 A3017 RMK AO2 T10761099

Get Your Daily Forecast Email!

Thanks for signing up!

Be on the lookout for a verification email in your inbox.

You'll start receiving the daily forecast at 8 AM.

×

10-Day Weather Forecast

Almanac

Astronomy

Jan. 17, 2017 Rise Set
Actual Time
Civil Twilight
Nautical Twilight
Astronomical Twilight
Moon
Length of Visible Light
Length of Day
Tomorrow will be .
, % of the Moon is Illuminated

Today's Extremes

State Highs State Lows

Community

WunderPhotos

Upload Photos

1,962,540 photos uploaded!

WunderBlog® & News

Nearby

Air Quality

  Air Quality AQ Index Pollutant
Not available.

Snow Depth

Station Depth Elevation

Earthquake Activity

City Distance Mag. Time & Date
Minimum magnitude displayed is 2.5.

Coastal Water Temperatures

Place Temperature

Stations

Nearby Weather Stations

Station Location Temp. Windchill Dew Point Humidity Wind Precip. Elev Updated Type
                   

Watches & Warnings

Winter Storm Watch
Issued: 9:32 PM EST Jan. 16, 2017 – National Weather Service

... Winter Storm Watch remains in effect from Tuesday evening
through Wednesday afternoon...

* hazard types... snow... mixing with sleet and rain at times.
Some light freezing rain is also possible for a time Tuesday
evening.

* Accumulations... 4 to 8 inches of snow.

* Timing... Tuesday evening into the day on Wednesday.

* Impacts... a wintry mix will make travel difficult.

* Winds... northeast 5 to 10 mph.

* Temperatures... in the upper 20s to lower 30s.

Precautionary/preparedness actions...

A Winter Storm Watch means there is a potential for significant
snow... sleet... or ice accumulations that may impact travel.
Continue to monitor the latest forecasts.